Home PIREPS Pireps

Flight BEL157

  • Submitted By: Michael Leleu
  • Departure Airport: Bruxelles National (EBBR)
  • Arrival Airport: Treviso (LIPH)
  • Aircraft: A319-111 (OO-SSQ)
  • Flight Time: 01.40
  • Date Submitted: 23/08/2016
  • Route: SOPOK UY863 ETENO Y863 UBIDU UL607 UTABA UM738 ADOSA
  • Status: Accepted
Flight Details
Gross Revenue:
(218 load / € 0.00 per unit
€ 0.00
Fuel Cost:
(3648 fuel used @ 0 / unit)
€ 0.00

Additional Log Information:

View Log

Aircraft Used in flight is Boeing 737-8ASNGX Ryanair (EI-FOB) Winglets
19:34 Brakes are On
19:49 Brakes are Released
20:02 You Took off @ 175 Knots and Flaps at Position 1
Departure Weather
EBBR 231750Z 10003KT 070V130 CAVOK 27/17 Q1023 NOSIGrn
20:02 Landing Gear Up @ 178 Knots and 340 Feet
20:06 Above FL100 you need to switch of the landing lights
21:09 Below 10000 feet you are not allowed to go over 250 knots
21:10 Landing Gear Down @ 233 Knots and 2850 Feet
21:13 You Landed @ 139 Knots and with -300 Vertical Speed
Arrival Weather
LIPH 231850Z 17003KT CAVOK 24/16 Q1022rn
21:13 Paused
21:15 Unpaused
21:16 Brakes are On
21:17 Brussels Bel-Track1.0.1.2

Route Map

Corporate About Us Our Team Vacancies Information Fleet Route Network Rules and Regulations Operations Flight Schedules Event Center Tours Partners IVAO Vatsim Acars dev FSCB

fb Users Online Belgium Glenn Sonck,
1 Pilot(s) and 174 Guest(s) Online
CMS by phpVMS - Design by Crazycreatives.com - Copyright © 2018 - Brussels Airlines Virtual